createdAt,value
2023-01-18T00:02:20.885Z,8.80
2023-01-18T00:05:30.875Z,9.10
2023-01-18T00:09:32.047Z,8.00
2023-01-18T00:13:24.201Z,7.70
2023-01-18T00:17:25.275Z,7.40
2023-01-18T00:21:09.866Z,7.50
2023-01-18T00:24:30.455Z,8.50
2023-01-18T00:28:25.644Z,7.80
2023-01-18T00:36:10.023Z,6.80
2023-01-18T00:40:02.449Z,7.40
2023-01-18T00:44:04.815Z,7.40
2023-01-18T00:48:07.124Z,7.90
2023-01-18T00:52:07.893Z,7.80
2023-01-18T00:56:10.194Z,7.50
2023-01-18T00:59:55.297Z,6.80
2023-01-18T01:03:55.459Z,8.10
2023-01-18T01:07:56.579Z,8.00
2023-01-18T01:11:58.910Z,7.40
2023-01-18T01:15:52.808Z,9.30
2023-01-18T01:19:44.562Z,7.70
2023-01-18T01:23:51.036Z,8.10
2023-01-18T01:27:53.387Z,8.40
2023-01-18T01:31:55.724Z,8.10
2023-01-18T01:35:58.046Z,8.60
2023-01-18T01:40:00.424Z,7.40
2023-01-18T01:44:02.804Z,8.70
2023-01-18T01:48:20.109Z,7.40
2023-01-18T01:52:22.655Z,7.30
2023-01-18T01:56:25.133Z,8.10
2023-01-18T02:00:27.629Z,6.90
2023-01-18T02:08:04.517Z,6.90
2023-01-18T02:12:06.926Z,7.80
2023-01-18T02:15:56.988Z,7.80
2023-01-18T02:19:37.310Z,8.70
2023-01-18T02:23:39.717Z,8.50
2023-01-18T02:27:42.068Z,8.20
2023-01-18T02:31:28.230Z,7.90
2023-01-18T02:35:29.615Z,8.50
2023-01-18T02:39:31.947Z,7.80
2023-01-18T02:43:17.799Z,8.20
2023-01-18T02:47:10.254Z,9.60
2023-01-18T02:51:11.302Z,7.70
2023-01-18T02:55:14.565Z,8.90
2023-01-18T02:59:07.522Z,8.00
2023-01-18T03:03:09.872Z,8.80
2023-01-18T03:07:12.223Z,10.50
2023-01-18T03:11:14.536Z,8.20
2023-01-18T03:15:02.571Z,9.70
2023-01-18T03:19:04.978Z,8.40
2023-01-18T03:23:05.379Z,9.60
2023-01-18T03:27:06.429Z,9.30
2023-01-18T03:30:49.917Z,8.60
2023-01-18T03:34:52.281Z,8.40
2023-01-18T03:38:54.362Z,9.10
2023-01-18T03:42:46.601Z,9.00
2023-01-18T03:46:36.530Z,8.40
2023-01-18T03:50:04.723Z,10.80
2023-01-18T03:54:19.016Z,14.20
2023-01-18T03:58:24.128Z,10.50
2023-01-18T04:02:26.459Z,9.80
2023-01-18T04:06:18.755Z,10.50
2023-01-18T04:10:21.092Z,9.00
2023-01-18T04:14:08.595Z,8.50
2023-01-18T04:17:45.188Z,8.40
2023-01-18T04:21:20.144Z,9.20
2023-01-18T04:25:12.463Z,8.80
2023-01-18T04:28:57.520Z,9.20
2023-01-18T04:32:52.857Z,8.80
2023-01-18T04:36:33.893Z,10.40
2023-01-18T04:40:28.633Z,10.10
2023-01-18T04:44:08.090Z,9.90
2023-01-18T04:48:00.331Z,9.00
2023-01-18T04:52:01.562Z,10.50
2023-01-18T04:55:38.583Z,11.60
2023-01-18T04:59:30.721Z,10.70
2023-01-18T05:03:12.938Z,10.40
2023-01-18T05:06:50.993Z,11.20
2023-01-18T05:10:53.287Z,10.40
2023-01-18T05:14:55.723Z,9.60
2023-01-18T05:18:58.192Z,9.60
2023-01-18T05:23:00.811Z,9.90
2023-01-18T05:26:43.055Z,9.40
2023-01-18T05:30:28.475Z,10.60
2023-01-18T05:34:30.831Z,9.60
2023-01-18T05:38:01.826Z,10.60
2023-01-18T05:42:04.096Z,9.40
2023-01-18T05:45:59.196Z,8.80
2023-01-18T05:49:44.800Z,8.80
2023-01-18T05:53:47.068Z,8.50
2023-01-18T05:57:49.458Z,8.40
2023-01-18T06:01:41.644Z,9.50
2023-01-18T06:05:26.374Z,10.90
2023-01-18T06:09:11.731Z,9.80
2023-01-18T06:13:06.418Z,8.80
2023-01-18T06:16:51.654Z,9.20
2023-01-18T06:20:42.872Z,9.70
2023-01-18T06:24:25.141Z,9.50
2023-01-18T06:28:07.381Z,9.10
2023-01-18T06:32:09.786Z,9.10
2023-01-18T06:36:12.156Z,7.90
2023-01-18T06:39:51.591Z,7.50
2023-01-18T06:43:24.196Z,6.70
2023-01-18T06:46:44.248Z,7.30
2023-01-18T06:50:45.425Z,7.80
2023-01-18T06:54:33.036Z,7.20
2023-01-18T06:58:35.341Z,8.20
2023-01-18T07:02:04.705Z,8.00
2023-01-18T07:05:39.819Z,8.90
2023-01-18T07:09:42.118Z,7.80
2023-01-18T07:13:26.849Z,9.30
2023-01-18T07:17:29.154Z,8.40
2023-01-18T07:21:30.017Z,8.40
2023-01-18T07:25:12.198Z,9.10
2023-01-18T07:28:50.008Z,8.40
2023-01-18T07:32:52.516Z,6.90
2023-01-18T07:36:54.615Z,7.60
2023-01-18T07:40:50.021Z,8.00
2023-01-18T07:44:14.960Z,9.40
2023-01-18T07:48:15.825Z,9.60
2023-01-18T07:52:18.169Z,8.90
2023-01-18T07:56:19.492Z,8.90
2023-01-18T08:00:21.822Z,8.70
2023-01-18T08:03:55.748Z,8.40
2023-01-18T08:07:58.084Z,8.70
2023-01-18T08:11:58.367Z,8.70
2023-01-18T08:15:53.329Z,7.90
2023-01-18T08:19:55.671Z,7.50
2023-01-18T08:23:56.473Z,7.50
2023-01-18T08:27:28.617Z,7.30
2023-01-18T08:30:42.290Z,6.60
2023-01-18T08:34:44.639Z,7.10
2023-01-18T08:38:39.367Z,8.00
2023-01-18T08:42:31.580Z,9.80
2023-01-18T08:45:59.377Z,9.20
2023-01-18T08:49:32.053Z,9.70
2023-01-18T08:53:04.346Z,10.90
2023-01-18T08:56:50.112Z,8.90
2023-01-18T09:00:45.242Z,10.20
2023-01-18T09:08:29.884Z,8.60
2023-01-18T09:12:21.213Z,9.30
2023-01-18T09:16:18.324Z,11.30
2023-01-18T09:20:13.128Z,10.60
2023-01-18T09:24:15.607Z,11.00
2023-01-18T09:28:17.093Z,9.70
2023-01-18T09:32:01.818Z,11.50
2023-01-18T09:35:45.271Z,12.30
2023-01-18T09:39:51.004Z,12.20
2023-01-18T09:43:27.007Z,11.80
2023-01-18T09:47:14.020Z,11.70
2023-01-18T09:51:19.141Z,12.10
2023-01-18T09:55:10.143Z,14.30
2023-01-18T09:58:41.682Z,12.40
2023-01-18T10:02:45.356Z,11.30
2023-01-18T10:10:24.902Z,13.80
2023-01-18T10:14:19.181Z,13.10
2023-01-18T10:17:42.159Z,11.50
2023-01-18T10:21:39.403Z,11.10
2023-01-18T10:25:41.832Z,12.10
2023-01-18T10:29:16.736Z,14.30
2023-01-18T10:32:50.754Z,13.40
2023-01-18T10:36:43.568Z,14.80
2023-01-18T10:40:28.700Z,13.10
2023-01-18T10:44:11.597Z,12.10
2023-01-18T10:47:17.963Z,13.90
2023-01-18T10:50:53.623Z,13.60
2023-01-18T10:54:36.280Z,12.40
2023-01-18T10:58:23.739Z,14.00
2023-01-18T11:01:36.128Z,14.60
2023-01-18T11:04:42.442Z,14.00
2023-01-18T11:07:48.768Z,14.70
2023-01-18T11:11:37.125Z,12.80
2023-01-18T11:15:37.925Z,13.30
2023-01-18T11:19:25.841Z,13.20
2023-01-18T11:23:01.721Z,11.50
2023-01-18T11:26:47.403Z,11.80
2023-01-18T11:30:25.610Z,12.70
2023-01-18T11:34:10.900Z,12.50
2023-01-18T11:38:04.773Z,11.80
2023-01-18T11:41:49.194Z,10.40
2023-01-18T11:45:40.017Z,11.70
2023-01-18T11:49:42.438Z,12.00
2023-01-18T11:53:53.705Z,10.70
2023-01-18T11:57:26.546Z,10.80
2023-01-18T12:01:34.989Z,9.90
2023-01-18T12:05:49.468Z,9.90
2023-01-18T12:09:14.530Z,10.80
2023-01-18T12:12:56.822Z,10.20
2023-01-18T12:16:36.225Z,9.50
2023-01-18T12:20:42.111Z,9.70
2023-01-18T12:24:24.931Z,11.60
2023-01-18T12:28:10.213Z,10.90
2023-01-18T12:32:20.228Z,11.90
2023-01-18T12:35:43.726Z,10.50
2023-01-18T12:39:37.994Z,11.70
2023-01-18T12:43:40.280Z,16.10
2023-01-18T12:47:38.313Z,16.90
2023-01-18T12:51:10.908Z,15.30
2023-01-18T12:54:53.925Z,13.50
2023-01-18T12:58:35.423Z,14.10
2023-01-18T13:01:57.609Z,10.50
2023-01-18T13:05:54.453Z,14.50
2023-01-18T13:09:36.779Z,12.80
2023-01-18T13:13:39.243Z,14.00
2023-01-18T13:17:24.617Z,13.10
2023-01-18T13:21:27.004Z,14.90
2023-01-18T13:25:31.414Z,14.30
2023-01-18T13:29:13.841Z,15.40
2023-01-18T13:36:05.600Z,12.90
2023-01-18T13:39:47.063Z,15.90
2023-01-18T13:43:32.230Z,15.80
2023-01-18T13:47:34.413Z,16.50
2023-01-18T13:51:15.584Z,15.30
2023-01-18T13:55:17.846Z,17.10
2023-01-18T13:59:00.229Z,15.40
2023-01-18T14:03:04.673Z,14.80
2023-01-18T14:06:44.470Z,15.90
2023-01-18T14:10:18.309Z,15.20
2023-01-18T14:14:08.608Z,14.80
2023-01-18T14:17:53.411Z,15.80
2023-01-18T14:21:42.797Z,18.20
2023-01-18T14:28:46.576Z,14.40
2023-01-18T14:32:28.688Z,14.00
2023-01-18T14:36:14.187Z,13.90
2023-01-18T14:40:09.467Z,14.80
2023-01-18T14:44:14.611Z,13.10
2023-01-18T14:48:16.992Z,17.10
2023-01-18T14:51:30.020Z,13.10
2023-01-18T14:58:59.131Z,12.20
2023-01-18T15:02:52.691Z,12.10
2023-01-18T15:06:50.035Z,13.30
2023-01-18T15:10:26.702Z,12.90
2023-01-18T15:14:19.018Z,14.50
2023-01-18T15:17:49.719Z,13.50
2023-01-18T15:21:36.784Z,12.40
2023-01-18T15:25:23.013Z,12.50
2023-01-18T15:28:56.400Z,13.60
2023-01-18T15:32:24.320Z,14.80
2023-01-18T15:36:26.694Z,13.90
2023-01-18T15:39:49.007Z,12.90
2023-01-18T15:42:58.412Z,12.40
2023-01-18T15:46:43.691Z,14.30
2023-01-18T15:50:47.072Z,14.20
2023-01-18T15:54:49.542Z,15.90
2023-01-18T15:58:52.033Z,16.40
2023-01-18T16:02:49.284Z,15.40
2023-01-18T16:06:34.719Z,17.40
2023-01-18T16:10:49.206Z,17.10
2023-01-18T16:14:31.853Z,15.10
2023-01-18T16:18:34.306Z,13.90
2023-01-18T16:22:25.710Z,13.50
2023-01-18T16:26:17.312Z,13.40
2023-01-18T16:30:02.215Z,14.00
2023-01-18T16:33:57.140Z,13.60
2023-01-18T16:37:50.827Z,14.10
2023-01-18T16:41:53.207Z,14.50
2023-01-18T16:45:35.567Z,14.60
2023-01-18T16:49:23.543Z,14.40
2023-01-18T16:53:25.947Z,13.90
2023-01-18T16:56:55.179Z,15.00
2023-01-18T17:00:40.495Z,15.90
2023-01-18T17:04:42.775Z,14.40
2023-01-18T17:08:37.975Z,15.00
2023-01-18T17:12:40.342Z,12.60
2023-01-18T17:16:35.548Z,14.30
2023-01-18T17:20:26.671Z,15.90
2023-01-18T17:24:29.064Z,16.10
2023-01-18T17:28:31.470Z,16.10
2023-01-18T17:32:13.797Z,15.70
2023-01-18T17:36:09.450Z,15.40
2023-01-18T17:40:15.799Z,15.80
2023-01-18T17:43:34.348Z,18.20
2023-01-18T17:47:26.803Z,20.90
2023-01-18T17:51:29.285Z,19.80
2023-01-18T17:55:35.072Z,19.90
2023-01-18T17:59:37.511Z,15.30
2023-01-18T18:03:39.904Z,16.70
2023-01-18T18:07:42.284Z,14.60
2023-01-18T18:11:28.652Z,14.60
2023-01-18T18:15:13.326Z,15.90
2023-01-18T18:19:06.061Z,15.20
2023-01-18T18:22:32.296Z,16.80
2023-01-18T18:26:12.701Z,16.50
2023-01-18T18:30:05.027Z,15.80
2023-01-18T18:34:07.438Z,15.60
2023-01-18T18:37:59.769Z,16.60
2023-01-18T18:41:55.192Z,17.40
2023-01-18T18:45:57.614Z,13.50
2023-01-18T18:49:40.469Z,14.60
2023-01-18T18:53:41.786Z,15.30
2023-01-18T18:57:34.175Z,14.90
2023-01-18T19:01:36.687Z,14.70
2023-01-18T19:05:39.046Z,16.40
2023-01-18T19:09:41.437Z,19.00
2023-01-18T19:13:43.746Z,15.60
2023-01-18T19:17:31.112Z,16.60
2023-01-18T19:21:23.749Z,14.90
2023-01-18T19:25:16.235Z,16.30
2023-01-18T19:29:07.467Z,16.30
2023-01-18T19:33:09.845Z,16.90
2023-01-18T19:36:34.384Z,17.70
2023-01-18T19:40:26.797Z,19.90
2023-01-18T19:44:09.409Z,16.80
2023-01-18T19:47:54.233Z,14.80
2023-01-18T19:51:36.787Z,15.50
2023-01-18T19:55:27.753Z,15.90
2023-01-18T19:59:11.523Z,15.70
2023-01-18T20:03:13.985Z,17.20
2023-01-18T20:07:16.468Z,15.60
2023-01-18T20:10:47.651Z,15.20
2023-01-18T20:14:40.975Z,15.10
2023-01-18T20:18:26.364Z,15.70
2023-01-18T20:22:28.766Z,15.10
2023-01-18T20:26:13.038Z,13.80
2023-01-18T20:29:45.337Z,13.70
2023-01-18T20:36:49.350Z,11.90
2023-01-18T20:43:56.538Z,12.30
2023-01-18T20:47:58.931Z,11.20
2023-01-18T20:52:01.366Z,11.00
2023-01-18T20:55:53.515Z,9.90
2023-01-18T20:59:48.219Z,12.60
2023-01-18T21:03:50.759Z,12.50
2023-01-18T21:06:52.618Z,12.90
2023-01-18T21:10:44.956Z,11.90
2023-01-18T21:14:47.574Z,9.70
2023-01-18T21:18:29.882Z,12.00
2023-01-18T21:22:22.063Z,12.10
2023-01-18T21:26:09.430Z,12.30
2023-01-18T21:30:01.998Z,11.40
2023-01-18T21:33:58.259Z,10.60
2023-01-18T21:37:59.847Z,11.30
2023-01-18T21:41:43.666Z,12.00
2023-01-18T21:45:54.829Z,10.00
2023-01-18T21:50:16.578Z,10.10
2023-01-18T21:53:36.162Z,11.60
2023-01-18T21:57:38.786Z,11.80
2023-01-18T22:01:21.520Z,12.10
2023-01-18T22:05:18.849Z,10.90
2023-01-18T22:09:04.114Z,11.20
2023-01-18T22:12:49.445Z,10.10
2023-01-18T22:16:27.926Z,9.70
2023-01-18T22:20:12.132Z,9.50
2023-01-18T22:23:44.536Z,10.30
2023-01-18T22:27:36.721Z,10.50
2023-01-18T22:31:21.896Z,11.10
2023-01-18T22:34:42.984Z,9.90
2023-01-18T22:38:45.505Z,9.80
2023-01-18T22:42:47.872Z,9.70
2023-01-18T22:46:43.357Z,8.80
2023-01-18T22:50:28.585Z,9.70
2023-01-18T22:54:22.287Z,9.30
2023-01-18T22:58:34.587Z,9.20
2023-01-18T23:02:26.743Z,9.30
2023-01-18T23:06:20.419Z,10.60
2023-01-18T23:10:12.610Z,10.20
2023-01-18T23:14:13.311Z,8.70
2023-01-18T23:18:15.656Z,10.90
2023-01-18T23:22:08.145Z,10.20
2023-01-18T23:26:10.618Z,9.30
2023-01-18T23:30:12.971Z,10.00
2023-01-18T23:34:15.325Z,11.50
2023-01-18T23:38:17.845Z,9.30
2023-01-18T23:42:10.652Z,11.30
2023-01-18T23:46:10.998Z,8.10
2023-01-18T23:50:01.344Z,8.30
2023-01-18T23:53:51.638Z,9.30
2023-01-18T23:57:47.548Z,7.90
